createdAt,value
2018-04-08T00:02:09.495Z,97076.25
2018-04-08T00:04:37.002Z,97070.12
2018-04-08T00:07:04.513Z,97069.17
2018-04-08T00:09:32.004Z,97067.44
2018-04-08T00:11:59.486Z,97064.92
2018-04-08T00:14:27.006Z,97066.41
2018-04-08T00:16:54.491Z,97059.07
2018-04-08T00:19:21.974Z,97064.66
2018-04-08T00:21:49.491Z,97065.55
2018-04-08T00:24:16.998Z,97063.91
2018-04-08T00:26:44.486Z,97058.70
2018-04-08T00:29:11.998Z,97057.52
2018-04-08T00:31:39.489Z,97046.78
2018-04-08T00:34:06.976Z,97053.16
2018-04-08T00:36:34.535Z,97047.39
2018-04-08T00:39:02.030Z,97053.15
2018-04-08T00:41:29.518Z,97046.83
2018-04-08T00:43:57.043Z,97052.20
2018-04-08T00:46:24.543Z,97049.41
2018-04-08T00:48:52.036Z,97045.80
2018-04-08T00:51:19.538Z,97042.63
2018-04-08T00:53:47.021Z,97037.13
2018-04-08T00:56:14.506Z,97039.78
2018-04-08T00:58:42.026Z,97037.61
2018-04-08T01:01:09.523Z,97031.62
2018-04-08T01:03:37.020Z,97039.03
2018-04-08T01:06:04.558Z,97034.14
2018-04-08T01:08:32.038Z,97033.13
2018-04-08T01:10:59.539Z,97021.94
2018-04-08T01:13:27.063Z,97033.03
2018-04-08T01:15:54.547Z,97029.40
2018-04-08T01:18:22.039Z,97030.45
2018-04-08T01:20:49.835Z,97028.81
2018-04-08T01:23:17.327Z,97025.87
2018-04-08T01:25:44.819Z,97031.03
2018-04-08T01:28:12.339Z,97027.39
2018-04-08T01:30:39.826Z,97036.44
2018-04-08T01:33:07.305Z,97026.77
2018-04-08T01:35:34.848Z,97016.84
2018-04-08T01:38:02.339Z,97008.95
2018-04-08T01:40:29.857Z,97016.60
2018-04-08T01:42:57.371Z,97014.91
2018-04-08T01:45:24.854Z,97012.77
2018-04-08T01:47:52.337Z,97019.47
2018-04-08T01:50:20.015Z,97006.05
2018-04-08T01:52:47.561Z,97005.93
2018-04-08T01:55:15.068Z,97011.86
2018-04-08T01:57:43.542Z,97006.59
2018-04-08T02:00:11.026Z,97003.88
2018-04-08T02:02:38.508Z,97003.09
2018-04-08T02:05:06.021Z,97009.20
2018-04-08T02:07:33.510Z,97007.61
2018-04-08T02:10:01.001Z,97013.25
2018-04-08T02:12:28.514Z,97007.52
2018-04-08T02:14:56.003Z,96994.34
2018-04-08T02:17:23.519Z,97002.77
2018-04-08T02:19:51.039Z,96997.83
2018-04-08T02:22:18.525Z,96990.55
2018-04-08T02:24:46.006Z,96990.59
2018-04-08T02:27:13.518Z,96996.63
2018-04-08T02:29:41.007Z,96994.12
2018-04-08T02:32:08.490Z,96985.44
2018-04-08T02:34:35.998Z,96985.81
2018-04-08T02:37:03.492Z,96986.84
2018-04-08T02:39:30.977Z,96993.42
2018-04-08T02:41:58.499Z,96994.94
2018-04-08T02:44:26.029Z,96992.44
2018-04-08T02:46:53.493Z,96996.36
2018-04-08T02:49:21.006Z,96999.11
2018-04-08T02:51:48.491Z,96997.47
2018-04-08T02:54:15.980Z,97001.39
2018-04-08T02:56:43.490Z,97005.37
2018-04-08T02:59:10.980Z,97004.39
2018-04-08T03:01:38.466Z,97006.81
2018-04-08T03:04:05.983Z,97005.42
2018-04-08T03:06:33.470Z,97001.73
2018-04-08T03:09:00.968Z,97001.33
2018-04-08T03:11:28.498Z,96998.31
2018-04-08T03:13:55.998Z,96999.30
2018-04-08T03:16:23.482Z,97000.27
2018-04-08T03:18:51.954Z,97006.27
2018-04-08T03:21:19.443Z,97008.55
2018-04-08T03:23:46.925Z,97017.29
2018-04-08T03:26:14.436Z,97010.80
2018-04-08T03:28:41.951Z,97009.53
2018-04-08T03:31:09.452Z,97001.25
2018-04-08T03:33:36.972Z,97000.07
2018-04-08T03:36:04.462Z,97000.90
2018-04-08T03:38:31.947Z,97005.44
2018-04-08T03:40:59.462Z,97004.11
2018-04-08T03:43:27.002Z,96995.03
2018-04-08T03:45:54.541Z,96995.68
2018-04-08T03:48:22.046Z,96997.19
2018-04-08T03:50:49.558Z,97000.55
2018-04-08T03:53:17.041Z,97006.22
2018-04-08T03:55:44.551Z,97004.87
2018-04-08T03:58:12.042Z,97001.70
2018-04-08T04:00:39.547Z,97009.06
2018-04-08T04:03:07.064Z,97002.69
2018-04-08T04:05:34.561Z,97001.08
2018-04-08T04:08:02.055Z,96998.52
2018-04-08T04:10:29.595Z,97000.45
2018-04-08T04:12:57.079Z,96992.38
2018-04-08T04:15:24.562Z,96998.11
2018-04-08T04:17:52.071Z,96998.89
2018-04-08T04:20:31.356Z,97004.91
2018-04-08T04:23:10.585Z,97000.53
2018-04-08T04:28:36.962Z,97003.08
2018-04-08T04:31:04.455Z,96998.44
2018-04-08T04:33:31.951Z,97001.95
2018-04-08T04:35:59.471Z,97003.65
2018-04-08T04:38:26.958Z,96995.75
2018-04-08T04:40:54.481Z,96999.06
2018-04-08T04:43:21.987Z,97002.91
2018-04-08T04:45:49.482Z,97013.63
2018-04-08T04:48:16.977Z,97006.31
2018-04-08T04:50:44.496Z,97009.20
2018-04-08T04:53:11.987Z,97010.35
2018-04-08T04:55:39.487Z,97004.34
2018-04-08T04:58:07.003Z,97006.90
2018-04-08T05:00:34.490Z,97006.61
2018-04-08T05:03:01.983Z,97002.39
2018-04-08T05:05:29.499Z,96996.70
2018-04-08T05:07:57.051Z,96991.77
2018-04-08T05:10:24.524Z,96990.00
2018-04-08T05:12:52.034Z,96996.84
2018-04-08T05:15:19.524Z,96991.52
2018-04-08T05:17:47.006Z,96999.67
2018-04-08T05:20:14.523Z,96992.22
2018-04-08T05:22:42.006Z,96992.34
2018-04-08T05:25:09.497Z,96989.24
2018-04-08T05:27:37.006Z,96997.87
2018-04-08T05:30:04.495Z,96992.92
2018-04-08T05:32:31.993Z,96995.43
2018-04-08T05:34:59.540Z,96992.86
2018-04-08T05:37:27.018Z,96995.39
2018-04-08T05:39:54.511Z,96990.52
2018-04-08T05:42:22.017Z,96999.27
2018-04-08T05:44:49.515Z,96994.41
2018-04-08T05:47:17.011Z,96992.40
2018-04-08T05:49:44.517Z,96996.52
2018-04-08T05:52:12.013Z,96999.44
2018-04-08T05:54:39.518Z,97004.67
2018-04-08T05:57:07.039Z,97000.67
2018-04-08T05:59:34.526Z,97004.73
2018-04-08T06:02:02.036Z,97001.26
2018-04-08T06:04:29.558Z,97007.33
2018-04-08T06:06:57.047Z,96987.32
2018-04-08T06:09:24.538Z,96990.58
2018-04-08T06:11:52.051Z,96985.61
2018-04-08T06:14:19.555Z,96990.86
2018-04-08T06:16:47.063Z,96982.19
2018-04-08T06:19:14.574Z,96988.04
2018-04-08T06:21:42.090Z,96985.94
2018-04-08T06:24:09.583Z,96978.17
2018-04-08T06:26:37.119Z,96980.69
2018-04-08T06:29:04.667Z,96983.73
2018-04-08T06:31:32.162Z,96985.84
2018-04-08T06:33:59.684Z,96984.14
2018-04-08T06:36:27.169Z,96992.00
2018-04-08T06:38:54.655Z,96987.93
2018-04-08T06:41:23.083Z,96986.88
2018-04-08T06:43:50.601Z,96982.98
2018-04-08T06:46:18.086Z,96939.68
2018-04-08T06:48:45.603Z,96969.95
2018-04-08T06:51:13.094Z,96966.47
2018-04-08T06:53:40.591Z,96962.52
2018-04-08T06:56:08.123Z,96972.59
2018-04-08T06:58:35.614Z,96967.32
2018-04-08T07:01:03.102Z,96964.94
2018-04-08T07:03:30.620Z,96965.88
2018-04-08T07:05:59.007Z,96962.92
2018-04-08T07:08:26.525Z,96958.25
2018-04-08T07:10:54.030Z,96952.45
2018-04-08T07:13:21.514Z,96958.83
2018-04-08T07:15:48.994Z,96953.92
2018-04-08T07:18:16.530Z,96954.78
2018-04-08T07:20:44.019Z,96954.22
2018-04-08T07:23:11.511Z,96957.05
2018-04-08T07:25:39.023Z,96960.28
2018-04-08T07:28:06.509Z,96956.70
2018-04-08T07:30:34.059Z,96961.98
2018-04-08T07:33:01.578Z,96961.46
2018-04-08T07:35:29.066Z,96961.21
2018-04-08T07:37:56.551Z,96957.31
2018-04-08T07:40:24.079Z,96961.61
2018-04-08T07:42:51.566Z,96953.48
2018-04-08T07:45:19.046Z,96939.78
2018-04-08T07:47:46.550Z,96950.20
2018-04-08T07:50:14.035Z,96947.77
2018-04-08T07:52:41.518Z,96942.61
2018-04-08T07:55:09.034Z,96945.96
2018-04-08T07:57:36.525Z,96939.41
2018-04-08T08:00:04.072Z,96944.30
2018-04-08T08:02:31.596Z,96946.65
2018-04-08T08:04:59.103Z,96940.12
2018-04-08T08:07:26.598Z,96938.00
2018-04-08T08:09:54.120Z,96937.73
2018-04-08T08:12:21.637Z,96929.37
2018-04-08T08:14:49.140Z,96925.02
2018-04-08T08:17:16.653Z,96917.72
2018-04-08T08:19:44.142Z,96917.91
2018-04-08T08:22:11.682Z,96903.92
2018-04-08T08:24:39.202Z,96900.98
2018-04-08T08:27:06.697Z,96914.60
2018-04-08T08:29:34.208Z,96918.44
2018-04-08T08:32:01.746Z,96909.58
2018-04-08T08:34:29.248Z,96907.62
2018-04-08T08:36:57.065Z,96911.62
2018-04-08T08:39:24.679Z,96906.97
2018-04-08T08:41:52.176Z,96904.15
2018-04-08T08:44:19.670Z,96900.38
2018-04-08T08:46:47.193Z,96902.97
2018-04-08T08:49:14.691Z,96901.87
2018-04-08T08:51:42.195Z,96894.81
2018-04-08T08:54:09.749Z,96894.95
2018-04-08T08:56:37.239Z,96890.42
2018-04-08T08:59:04.747Z,96887.02
2018-04-08T09:01:32.280Z,96887.29
2018-04-08T09:03:59.776Z,96884.30
2018-04-08T09:06:27.278Z,96889.78
2018-04-08T09:08:54.801Z,96879.32
2018-04-08T09:11:22.367Z,96895.81
2018-04-08T09:13:49.866Z,96888.31
2018-04-08T09:16:17.395Z,96888.08
2018-04-08T09:18:44.886Z,96856.31
2018-04-08T09:21:18.048Z,96874.56
2018-04-08T09:23:47.400Z,96880.03
2018-04-08T09:26:14.926Z,96869.55
2018-04-08T09:28:42.442Z,96864.94
2018-04-08T09:31:09.939Z,96850.84
2018-04-08T09:33:37.434Z,96866.99
2018-04-08T09:36:04.995Z,96861.16
2018-04-08T09:38:32.486Z,96868.58
2018-04-08T09:40:59.985Z,96856.60
2018-04-08T09:43:27.507Z,96855.48
2018-04-08T09:45:54.999Z,96867.19
2018-04-08T09:48:22.494Z,96862.16
2018-04-08T09:50:50.015Z,96845.22
2018-04-08T09:53:18.747Z,96846.67
2018-04-08T09:55:46.251Z,96855.47
2018-04-08T09:58:14.274Z,96863.25
2018-04-08T10:03:50.555Z,96846.42
2018-04-08T10:06:18.051Z,96848.50
2018-04-08T10:08:45.545Z,96846.58
2018-04-08T10:11:13.065Z,96842.77
2018-04-08T10:13:40.564Z,96849.62
2018-04-08T10:16:08.050Z,96835.12
2018-04-08T10:18:35.574Z,96834.12
2018-04-08T10:21:03.073Z,96834.23
2018-04-08T10:23:30.567Z,96824.19
2018-04-08T10:25:58.096Z,96827.69
2018-04-08T10:28:25.583Z,96832.89
2018-04-08T10:30:53.090Z,96815.70
2018-04-08T10:33:20.607Z,96818.20
2018-04-08T10:35:48.104Z,96793.78
2018-04-08T10:38:15.591Z,96817.16
2018-04-08T10:40:43.114Z,96818.09
2018-04-08T10:43:10.623Z,96804.31
2018-04-08T10:45:38.123Z,96801.67
2018-04-08T10:48:05.633Z,96807.34
2018-04-08T10:50:33.126Z,96816.30
2018-04-08T10:53:00.616Z,96810.30
2018-04-08T10:55:28.126Z,96806.80
2018-04-08T10:57:55.619Z,96804.77
2018-04-08T11:00:23.114Z,96805.55
2018-04-08T11:02:50.626Z,96812.22
2018-04-08T11:05:18.122Z,96809.69
2018-04-08T11:07:45.622Z,96815.17
2018-04-08T11:10:13.144Z,96805.61
2018-04-08T11:12:40.654Z,96800.94
2018-04-08T11:15:08.150Z,96797.52
2018-04-08T11:17:35.666Z,96802.22
2018-04-08T11:20:03.164Z,96782.84
2018-04-08T11:22:30.667Z,96793.11
2018-04-08T11:24:58.183Z,96792.40
2018-04-08T11:27:25.665Z,96781.48
2018-04-08T11:29:53.160Z,96799.45
2018-04-08T11:32:20.669Z,96794.38
2018-04-08T11:34:48.172Z,96787.43
2018-04-08T11:37:15.664Z,96781.70
2018-04-08T11:39:43.183Z,96789.11
2018-04-08T11:42:10.678Z,96790.54
2018-04-08T11:44:38.209Z,96783.69
2018-04-08T11:47:05.725Z,96780.94
2018-04-08T11:49:33.242Z,96772.45
2018-04-08T11:52:00.730Z,96769.95
2018-04-08T11:54:28.271Z,96768.55
2018-04-08T11:56:55.758Z,96754.77
2018-04-08T11:59:23.250Z,96751.41
2018-04-08T12:01:50.771Z,96753.31
2018-04-08T12:04:18.266Z,96751.89
2018-04-08T12:06:45.769Z,96754.76
2018-04-08T12:09:13.290Z,96744.70
2018-04-08T12:11:40.783Z,96739.92
2018-04-08T12:14:08.279Z,96733.89
2018-04-08T12:16:35.839Z,96731.56
2018-04-08T12:19:03.337Z,96732.43
2018-04-08T12:21:31.730Z,96685.84
2018-04-08T12:23:59.274Z,96728.89
2018-04-08T12:26:26.762Z,96736.17
2018-04-08T12:28:54.315Z,96745.11
2018-04-08T12:31:21.850Z,96741.45
2018-04-08T12:33:49.328Z,96735.09
2018-04-08T12:36:16.835Z,96728.68
2018-04-08T12:38:44.359Z,96729.11
2018-04-08T12:41:11.862Z,96732.62
2018-04-08T12:43:39.364Z,96726.59
2018-04-08T12:46:06.893Z,96719.38
2018-04-08T12:48:34.404Z,96681.89
2018-04-08T12:51:01.927Z,96719.16
2018-04-08T12:53:29.455Z,96712.16
2018-04-08T12:55:56.951Z,96711.11
2018-04-08T12:58:24.523Z,96708.95
2018-04-08T13:00:52.106Z,96704.22
2018-04-08T13:03:19.589Z,96709.22
2018-04-08T13:05:47.087Z,96697.34
2018-04-08T13:08:14.602Z,96701.31
2018-04-08T13:10:42.086Z,96695.89
2018-04-08T13:13:09.573Z,96687.53
2018-04-08T13:15:37.101Z,96682.95
2018-04-08T13:18:04.594Z,96676.95
2018-04-08T13:20:32.084Z,96678.56
2018-04-08T13:22:59.603Z,96663.00
2018-04-08T13:25:27.135Z,96666.58
2018-04-08T13:27:54.641Z,96666.80
2018-04-08T13:30:22.159Z,96660.28
2018-04-08T13:32:49.677Z,96660.52
2018-04-08T13:35:17.250Z,96658.93
2018-04-08T13:37:44.790Z,96666.64
2018-04-08T13:40:12.282Z,96656.59
2018-04-08T13:42:39.778Z,96649.48
2018-04-08T13:45:07.295Z,96661.02
2018-04-08T13:47:34.803Z,96648.94
2018-04-08T13:50:02.309Z,96642.20
2018-04-08T13:52:29.829Z,96645.64
2018-04-08T13:54:57.330Z,96648.00
2018-04-08T13:57:24.822Z,96642.36
2018-04-08T13:59:52.352Z,96637.98
2018-04-08T14:02:19.838Z,96641.77
2018-04-08T14:04:47.321Z,96636.84
2018-04-08T14:07:14.837Z,96630.73
2018-04-08T14:09:42.335Z,96631.87
2018-04-08T14:12:09.832Z,96625.20
2018-04-08T14:14:37.354Z,96627.17
2018-04-08T14:17:04.849Z,96600.08
2018-04-08T14:19:32.346Z,96620.53
2018-04-08T14:21:59.873Z,96621.03
2018-04-08T14:24:27.414Z,96621.23
2018-04-08T14:26:54.890Z,96623.28
2018-04-08T14:29:22.425Z,96625.93
2018-04-08T14:31:49.909Z,96622.71
2018-04-08T14:34:17.393Z,96612.75
2018-04-08T14:36:44.912Z,96619.89
2018-04-08T14:39:12.401Z,96617.65
2018-04-08T14:41:40.419Z,96616.00
2018-04-08T14:44:07.942Z,96598.37
2018-04-08T14:46:35.437Z,96613.19
2018-04-08T14:49:02.921Z,96608.68
2018-04-08T14:51:30.435Z,96612.23
2018-04-08T14:53:57.936Z,96608.06
2018-04-08T14:56:25.430Z,96609.55
2018-04-08T14:58:52.943Z,96607.81
2018-04-08T15:01:20.450Z,96600.80
2018-04-08T15:03:47.944Z,96597.86
2018-04-08T15:06:15.463Z,96602.73
2018-04-08T15:08:42.955Z,96590.30
2018-04-08T15:11:10.447Z,96590.55
2018-04-08T15:13:37.962Z,96590.70
2018-04-08T15:16:05.462Z,96581.78
2018-04-08T15:18:33.003Z,96579.45
2018-04-08T15:21:00.519Z,96573.98
2018-04-08T15:23:28.032Z,96580.23
2018-04-08T15:25:55.523Z,96547.91
2018-04-08T15:28:23.042Z,96575.41
2018-04-08T15:30:50.531Z,96569.47
2018-04-08T15:33:18.037Z,96564.95
2018-04-08T15:35:45.545Z,96568.38
2018-04-08T15:38:13.026Z,96566.02
2018-04-08T15:40:40.533Z,96571.39
2018-04-08T15:43:08.056Z,96559.92
2018-04-08T15:45:35.542Z,96565.58
2018-04-08T15:48:03.027Z,96554.84
2018-04-08T15:50:30.538Z,96564.83
2018-04-08T15:52:58.033Z,96565.02
2018-04-08T15:55:25.525Z,96569.02
2018-04-08T15:57:53.030Z,96562.61
2018-04-08T16:00:20.518Z,96564.52
2018-04-08T16:02:48.055Z,96571.86
2018-04-08T16:05:15.583Z,96566.97
2018-04-08T16:07:43.079Z,96570.83
2018-04-08T16:10:10.575Z,96570.47
2018-04-08T16:12:38.088Z,96568.63
2018-04-08T16:15:05.592Z,96571.34
2018-04-08T16:17:33.074Z,96570.43
2018-04-08T16:20:00.590Z,96570.40
2018-04-08T16:22:28.086Z,96571.14
2018-04-08T16:24:55.570Z,96568.19
2018-04-08T16:27:23.094Z,96572.64
2018-04-08T16:29:50.614Z,96562.95
2018-04-08T16:32:18.108Z,96579.17
2018-04-08T16:34:45.618Z,96566.33
2018-04-08T16:37:13.121Z,96573.47
2018-04-08T16:39:40.607Z,96574.16
2018-04-08T16:42:08.132Z,96566.45
2018-04-08T16:44:35.619Z,96571.54
2018-04-08T16:47:03.095Z,96568.12
2018-04-08T16:49:30.620Z,96567.54
2018-04-08T16:51:58.108Z,96563.61
2018-04-08T16:54:25.607Z,96563.94
2018-04-08T16:56:53.111Z,96565.10
2018-04-08T16:59:20.590Z,96564.52
2018-04-08T17:01:48.066Z,96556.27
2018-04-08T17:04:15.571Z,96564.18
2018-04-08T17:06:43.079Z,96557.59
2018-04-08T17:09:10.563Z,96561.25
2018-04-08T17:11:38.079Z,96564.98
2018-04-08T17:14:05.558Z,96563.00
2018-04-08T17:16:33.032Z,96562.30
2018-04-08T17:19:00.551Z,96566.03
2018-04-08T17:21:28.038Z,96565.34
2018-04-08T17:23:55.528Z,96567.67
2018-04-08T17:26:23.051Z,96565.80
2018-04-08T17:28:50.534Z,96569.84
2018-04-08T17:31:18.044Z,96569.59
2018-04-08T17:33:45.558Z,96569.63
2018-04-08T17:36:13.058Z,96568.19
2018-04-08T17:38:40.546Z,96572.95
2018-04-08T17:41:08.051Z,96574.61
2018-04-08T17:43:35.533Z,96574.16
2018-04-08T17:46:03.014Z,96576.42
2018-04-08T17:48:30.533Z,96576.92
2018-04-08T17:50:58.054Z,96573.94
2018-04-08T17:53:25.536Z,96577.41
2018-04-08T17:55:53.048Z,96585.56
2018-04-08T17:58:20.546Z,96585.46
2018-04-08T18:00:48.034Z,96589.90
2018-04-08T18:03:15.639Z,96594.98
2018-04-08T18:05:43.122Z,96597.01
2018-04-08T18:08:10.603Z,96598.41
2018-04-08T18:10:38.124Z,96598.66
2018-04-08T18:13:05.616Z,96601.36
2018-04-08T18:15:33.102Z,96606.63
2018-04-08T18:18:00.610Z,96607.89
2018-04-08T18:20:28.093Z,96611.48
2018-04-08T18:22:55.587Z,96609.67
2018-04-08T18:25:23.106Z,96609.80
2018-04-08T18:27:50.590Z,96622.38
2018-04-08T18:30:18.092Z,96614.05
2018-04-08T18:32:45.604Z,96621.09
2018-04-08T18:35:13.090Z,96620.16
2018-04-08T18:37:40.573Z,96629.22
2018-04-08T18:40:08.086Z,96629.44
2018-04-08T18:42:35.570Z,96628.60
2018-04-08T18:45:03.050Z,96632.16
2018-04-08T18:47:30.564Z,96636.61
2018-04-08T18:49:58.057Z,96637.00
2018-04-08T18:52:25.542Z,96640.30
2018-04-08T18:54:53.049Z,96637.08
2018-04-08T18:57:20.538Z,96640.56
2018-04-08T18:59:48.023Z,96639.17
2018-04-08T19:02:15.530Z,96639.91
2018-04-08T19:04:43.043Z,96643.78
2018-04-08T19:07:10.552Z,96640.29
2018-04-08T19:09:38.095Z,96638.48
2018-04-08T19:12:05.615Z,96638.39
2018-04-08T19:14:38.718Z,96642.83
2018-04-08T19:17:06.223Z,96643.01
2018-04-08T19:19:33.721Z,96644.64
2018-04-08T19:22:01.233Z,96644.69
2018-04-08T19:24:28.722Z,96646.34
2018-04-08T19:26:56.212Z,96648.15
2018-04-08T19:29:23.726Z,96645.96
2018-04-08T19:31:51.212Z,96633.82
2018-04-08T19:34:18.701Z,96657.72
2018-04-08T19:36:46.261Z,96652.84
2018-04-08T19:39:13.743Z,96653.27
2018-04-08T19:41:41.226Z,96656.86
2018-04-08T19:44:08.733Z,96644.02
2018-04-08T19:46:36.227Z,96646.65
2018-04-08T19:49:03.750Z,96646.59
2018-04-08T19:51:31.279Z,96650.98
2018-04-08T19:53:58.772Z,96649.45
2018-04-08T19:56:26.262Z,96647.69
2018-04-08T19:58:53.778Z,96653.20
2018-04-08T20:01:21.271Z,96647.87
2018-04-08T20:03:48.754Z,96626.05
2018-04-08T20:06:16.283Z,96647.73
2018-04-08T20:08:43.787Z,96648.52
2018-04-08T20:11:11.286Z,96646.22
2018-04-08T20:13:38.793Z,96631.97
2018-04-08T20:16:06.295Z,96634.80
2018-04-08T20:18:33.777Z,96642.01
2018-04-08T20:21:01.283Z,96642.16
2018-04-08T20:23:28.767Z,96645.66
2018-04-08T20:25:56.263Z,96646.26
2018-04-08T20:28:23.775Z,96642.02
2018-04-08T20:30:51.267Z,96639.09
2018-04-08T20:33:18.749Z,96650.83
2018-04-08T20:35:46.275Z,96638.58
2018-04-08T20:38:13.764Z,96633.31
2018-04-08T20:40:41.247Z,96629.92
2018-04-08T20:43:09.255Z,96620.80
2018-04-08T20:45:36.742Z,96624.81
2018-04-08T20:48:04.231Z,96628.49
2018-04-08T20:50:31.819Z,96629.05
2018-04-08T20:52:59.322Z,96631.78
2018-04-08T20:55:26.815Z,96641.27
2018-04-08T20:57:54.331Z,96638.75
2018-04-08T21:00:21.822Z,96641.31
2018-04-08T21:02:49.307Z,96637.02
2018-04-08T21:05:16.819Z,96628.06
2018-04-08T21:07:44.316Z,96620.28
2018-04-08T21:10:11.807Z,96626.78
2018-04-08T21:12:39.342Z,96625.66
2018-04-08T21:15:06.832Z,96624.02
2018-04-08T21:17:34.318Z,96630.97
2018-04-08T21:20:01.831Z,96635.06
2018-04-08T21:22:29.317Z,96632.39
2018-04-08T21:24:56.812Z,96632.52
2018-04-08T21:27:24.326Z,96629.41
2018-04-08T21:29:51.819Z,96625.84
2018-04-08T21:32:19.305Z,96619.95
2018-04-08T21:34:46.821Z,96619.73
2018-04-08T21:37:14.313Z,96621.92
2018-04-08T21:39:41.794Z,96625.57
2018-04-08T21:42:09.315Z,96627.38
2018-04-08T21:44:36.830Z,96635.71
2018-04-08T21:47:04.324Z,96633.66
2018-04-08T21:49:31.839Z,96635.83
2018-04-08T21:51:59.327Z,96639.73
2018-04-08T21:54:26.830Z,96638.24
2018-04-08T21:56:54.346Z,96637.97
2018-04-08T21:59:21.843Z,96639.96
2018-04-08T22:01:49.340Z,96637.11
2018-04-08T22:04:16.859Z,96638.41
2018-04-08T22:06:44.349Z,96639.30
2018-04-08T22:09:11.847Z,96634.38
2018-04-08T22:11:39.358Z,96637.97
2018-04-08T22:14:06.851Z,96633.69
2018-04-08T22:16:34.357Z,96635.54
2018-04-08T22:19:02.844Z,96610.64
2018-04-08T22:21:30.401Z,96633.56
2018-04-08T22:23:57.903Z,96629.67
2018-04-08T22:26:25.426Z,96629.21
2018-04-08T22:28:52.919Z,96622.96
2018-04-08T22:31:20.415Z,96621.21
2018-04-08T22:33:47.934Z,96621.53
2018-04-08T22:36:15.427Z,96622.50
2018-04-08T22:38:42.923Z,96621.50
2018-04-08T22:41:10.446Z,96620.20
2018-04-08T22:43:37.938Z,96625.28
2018-04-08T22:46:05.440Z,96627.96
2018-04-08T22:48:32.963Z,96623.23
2018-04-08T22:51:00.459Z,96623.87
2018-04-08T22:53:27.959Z,96621.78
2018-04-08T22:55:55.474Z,96618.63
2018-04-08T22:58:22.962Z,96619.98
2018-04-08T23:00:50.452Z,96614.23
2018-04-08T23:03:17.976Z,96614.92
2018-04-08T23:05:45.470Z,96614.50
2018-04-08T23:08:12.967Z,96617.67
2018-04-08T23:10:40.478Z,96613.88
2018-04-08T23:13:07.968Z,96610.20
2018-04-08T23:15:35.454Z,96605.97
2018-04-08T23:18:02.961Z,96610.65
2018-04-08T23:20:30.474Z,96601.91
2018-04-08T23:22:57.962Z,96606.84
2018-04-08T23:25:25.491Z,96600.58
2018-04-08T23:27:52.973Z,96597.75
2018-04-08T23:30:20.458Z,96586.98
2018-04-08T23:32:47.979Z,96580.83
2018-04-08T23:35:15.475Z,96584.31
2018-04-08T23:37:42.971Z,96586.98
2018-04-08T23:40:10.482Z,96594.07
2018-04-08T23:42:37.994Z,96592.70
2018-04-08T23:45:05.515Z,96591.29
2018-04-08T23:47:33.026Z,96590.20
2018-04-08T23:50:00.538Z,96595.28
2018-04-08T23:52:28.024Z,96597.64
2018-04-08T23:54:55.567Z,96591.16
2018-04-08T23:57:23.055Z,96588.31
2018-04-08T23:59:50.538Z,96593.66
